createdAt,value
2018-12-20T00:01:25.123Z,29.60
2018-12-20T00:03:58.827Z,29.60
2018-12-20T00:06:32.784Z,29.60
2018-12-20T00:09:08.050Z,29.60
2018-12-20T00:11:42.408Z,29.60
2018-12-20T00:14:16.529Z,29.70
2018-12-20T00:16:54.151Z,29.70
2018-12-20T00:19:29.888Z,29.70
2018-12-20T00:22:04.266Z,29.70
2018-12-20T00:24:40.181Z,29.70
2018-12-20T00:27:14.060Z,29.70
2018-12-20T00:29:50.149Z,29.80
2018-12-20T00:32:24.011Z,29.80
2018-12-20T00:34:58.578Z,29.80
2018-12-20T00:37:32.703Z,29.80
2018-12-20T00:40:08.101Z,29.80
2018-12-20T00:42:41.891Z,29.80
2018-12-20T00:45:15.988Z,29.80
2018-12-20T00:47:49.800Z,29.90
2018-12-20T00:50:24.289Z,29.90
2018-12-20T00:52:58.952Z,29.90
2018-12-20T00:55:33.881Z,30.00
2018-12-20T00:58:07.601Z,30.00
2018-12-20T01:00:42.148Z,30.00
2018-12-20T01:03:16.318Z,30.10
2018-12-20T01:05:51.080Z,30.20
2018-12-20T01:08:26.447Z,30.30
2018-12-20T01:11:01.844Z,30.30
2018-12-20T01:13:37.171Z,30.40
2018-12-20T01:16:11.453Z,30.50
2018-12-20T01:18:45.991Z,30.60
2018-12-20T01:21:21.563Z,30.60
2018-12-20T01:23:56.894Z,30.70
2018-12-20T01:26:32.472Z,30.80
2018-12-20T01:29:06.731Z,30.80
2018-12-20T01:31:40.706Z,30.90
2018-12-20T01:34:14.974Z,31.00
2018-12-20T01:36:49.002Z,31.00
2018-12-20T01:39:23.192Z,31.10
2018-12-20T01:41:57.469Z,31.10
2018-12-20T01:44:31.431Z,31.20
2018-12-20T01:47:05.733Z,31.20
2018-12-20T01:49:40.694Z,31.30
2018-12-20T01:52:15.692Z,31.40
2018-12-20T01:55:10.350Z,31.40
2018-12-20T01:57:45.598Z,31.50
2018-12-20T02:00:20.160Z,31.60
2018-12-20T02:02:55.542Z,31.70
2018-12-20T02:05:30.093Z,31.70
2018-12-20T02:08:07.036Z,31.80
2018-12-20T02:10:43.064Z,31.80
2018-12-20T02:13:17.285Z,31.90
2018-12-20T02:15:51.604Z,31.90
2018-12-20T02:18:27.472Z,31.90
2018-12-20T02:21:01.211Z,32.00
2018-12-20T02:23:35.942Z,32.00
2018-12-20T02:26:10.602Z,32.00
2018-12-20T02:28:45.540Z,32.00
2018-12-20T02:31:21.859Z,32.10
2018-12-20T02:33:57.299Z,32.10
2018-12-20T02:36:43.634Z,32.20
2018-12-20T02:39:18.366Z,32.30
2018-12-20T02:41:53.119Z,32.30
2018-12-20T02:44:27.316Z,32.40
2018-12-20T02:47:21.258Z,32.40
2018-12-20T02:49:56.706Z,32.50
2018-12-20T02:52:31.891Z,32.60
2018-12-20T02:55:06.027Z,32.60
2018-12-20T02:57:40.009Z,32.60
2018-12-20T03:00:14.033Z,32.70
2018-12-20T03:02:48.313Z,32.70
2018-12-20T03:05:25.327Z,32.80
2018-12-20T03:07:59.603Z,32.80
2018-12-20T03:10:34.438Z,32.90
2018-12-20T03:13:10.106Z,32.90
2018-12-20T03:15:53.316Z,33.00
2018-12-20T03:18:28.579Z,33.00
2018-12-20T03:21:04.510Z,33.10
2018-12-20T03:23:42.312Z,33.10
2018-12-20T03:26:17.537Z,33.20
2018-12-20T03:28:52.544Z,33.20
2018-12-20T03:31:28.429Z,33.20
2018-12-20T03:34:02.780Z,33.10
2018-12-20T03:36:36.974Z,33.20
2018-12-20T03:39:13.348Z,33.20
2018-12-20T03:41:47.860Z,33.20
2018-12-20T03:44:22.373Z,33.30
2018-12-20T03:46:56.598Z,33.30
2018-12-20T03:49:31.181Z,33.30
2018-12-20T03:52:06.135Z,33.40
2018-12-20T03:54:41.042Z,33.40
2018-12-20T03:57:16.163Z,33.50
2018-12-20T03:59:50.592Z,33.50
2018-12-20T04:02:27.521Z,33.50
2018-12-20T04:05:01.570Z,33.60
2018-12-20T04:07:35.418Z,33.60
2018-12-20T04:10:10.999Z,33.60
2018-12-20T04:12:45.406Z,33.60
2018-12-20T04:15:19.875Z,33.70
2018-12-20T04:17:54.188Z,33.70
2018-12-20T04:20:28.872Z,33.80
2018-12-20T04:23:03.064Z,33.80
2018-12-20T04:25:39.390Z,33.80
2018-12-20T04:28:15.894Z,33.80
2018-12-20T04:30:50.175Z,33.80
2018-12-20T04:33:24.541Z,33.90
2018-12-20T04:35:59.652Z,33.90
2018-12-20T04:38:33.845Z,34.00
2018-12-20T04:41:08.468Z,34.00
2018-12-20T04:43:42.120Z,34.00
2018-12-20T04:46:16.300Z,34.00
2018-12-20T04:48:50.775Z,34.00
2018-12-20T04:51:25.175Z,34.10
2018-12-20T04:53:59.489Z,34.10
2018-12-20T04:56:33.238Z,34.20
2018-12-20T04:59:07.812Z,34.30
2018-12-20T05:01:41.407Z,34.30
2018-12-20T05:04:15.458Z,34.30
2018-12-20T05:06:49.973Z,34.30
2018-12-20T05:09:55.770Z,34.30
2018-12-20T05:12:31.607Z,34.40
2018-12-20T05:15:13.540Z,34.50
2018-12-20T05:17:47.382Z,34.50
2018-12-20T05:20:21.757Z,34.60
2018-12-20T05:22:55.774Z,34.60
2018-12-20T05:25:30.181Z,34.60
2018-12-20T05:28:04.149Z,34.70
2018-12-20T05:30:38.864Z,34.70
2018-12-20T05:33:12.648Z,34.80
2018-12-20T05:35:46.895Z,34.80
2018-12-20T05:38:21.403Z,34.80
2018-12-20T05:40:55.669Z,34.90
2018-12-20T05:43:31.211Z,34.90
2018-12-20T05:46:06.333Z,34.90
2018-12-20T05:49:12.929Z,34.90
2018-12-20T05:51:47.658Z,34.90
2018-12-20T05:54:53.846Z,34.90
2018-12-20T05:57:28.598Z,34.90
2018-12-20T06:00:02.657Z,34.80
2018-12-20T06:02:37.819Z,34.90
2018-12-20T06:05:16.311Z,34.90
2018-12-20T06:07:50.656Z,34.90
2018-12-20T06:10:25.935Z,34.90
2018-12-20T06:13:33.850Z,35.00
2018-12-20T06:16:13.072Z,35.10
2018-12-20T06:21:26.208Z,35.10
2018-12-20T06:23:59.814Z,35.10
2018-12-20T06:26:33.659Z,35.20
2018-12-20T06:29:09.267Z,35.30
2018-12-20T06:36:44.693Z,35.40
2018-12-20T06:39:18.668Z,35.40
2018-12-20T06:41:52.416Z,35.40
2018-12-20T06:44:58.410Z,35.40
2018-12-20T06:47:32.855Z,35.40
2018-12-20T06:50:07.837Z,35.40
2018-12-20T06:52:41.901Z,35.50
2018-12-20T06:55:15.704Z,35.50
2018-12-20T06:57:49.327Z,35.50
2018-12-20T07:00:24.927Z,35.60
2018-12-20T07:03:00.559Z,35.70
2018-12-20T07:05:35.498Z,35.70
2018-12-20T07:08:09.531Z,35.70
2018-12-20T07:10:44.288Z,35.80
2018-12-20T07:13:50.884Z,35.80
2018-12-20T07:16:29.419Z,35.80
2018-12-20T07:19:02.348Z,35.80
2018-12-20T07:21:36.732Z,35.80
2018-12-20T07:24:11.137Z,35.80
2018-12-20T07:26:45.283Z,35.80
2018-12-20T07:29:19.978Z,35.80
2018-12-20T07:31:54.177Z,35.80
2018-12-20T07:34:28.035Z,35.80
2018-12-20T07:37:33.695Z,35.80
2018-12-20T07:40:08.590Z,35.80
2018-12-20T07:43:15.309Z,35.80
2018-12-20T07:45:50.648Z,35.80
2018-12-20T07:48:57.821Z,35.80
2018-12-20T07:51:32.331Z,35.80
2018-12-20T07:54:06.260Z,35.80
2018-12-20T07:56:40.545Z,35.80
2018-12-20T07:59:14.777Z,35.80
2018-12-20T08:02:13.074Z,35.80
2018-12-20T08:04:47.066Z,35.80
2018-12-20T08:07:22.181Z,35.80
2018-12-20T08:09:56.163Z,35.80
2018-12-20T08:12:42.473Z,35.70
2018-12-20T08:15:16.720Z,35.70
2018-12-20T08:17:58.576Z,35.60
2018-12-20T08:20:35.802Z,35.60
2018-12-20T08:23:11.342Z,35.50
2018-12-20T08:25:48.301Z,35.50
2018-12-20T08:28:22.397Z,35.40
2018-12-20T08:30:56.274Z,35.40
2018-12-20T08:33:31.141Z,35.30
2018-12-20T08:36:05.984Z,35.30
2018-12-20T08:38:40.907Z,35.20
2018-12-20T08:41:14.836Z,35.20
2018-12-20T08:43:48.930Z,35.20
2018-12-20T08:46:22.582Z,35.20
2018-12-20T08:48:57.248Z,35.20
2018-12-20T08:51:32.572Z,35.20
2018-12-20T08:54:06.815Z,35.20
2018-12-20T08:56:41.147Z,35.30
2018-12-20T08:59:14.927Z,35.30
2018-12-20T09:01:49.490Z,35.30
2018-12-20T09:04:23.552Z,35.30
2018-12-20T09:06:57.917Z,35.30
2018-12-20T09:09:33.324Z,35.40
2018-12-20T09:12:07.305Z,35.40
2018-12-20T09:14:41.231Z,35.40
2018-12-20T09:17:17.821Z,35.40
2018-12-20T09:19:52.069Z,35.40
2018-12-20T09:22:27.215Z,35.40
2018-12-20T09:25:01.029Z,35.40
2018-12-20T09:27:34.997Z,35.40
2018-12-20T09:30:09.055Z,35.40
2018-12-20T09:32:43.170Z,35.40
2018-12-20T09:35:18.222Z,35.40
2018-12-20T09:37:52.487Z,35.40
2018-12-20T09:40:27.151Z,35.50
2018-12-20T09:43:13.191Z,35.50
2018-12-20T09:45:47.153Z,35.50
2018-12-20T09:48:23.248Z,35.50
2018-12-20T09:53:41.968Z,35.50
2018-12-20T09:56:15.742Z,35.50
2018-12-20T09:59:02.008Z,35.60
2018-12-20T10:01:36.141Z,35.50
2018-12-20T10:04:09.971Z,35.50
2018-12-20T10:06:44.077Z,35.50
2018-12-20T10:09:17.859Z,35.50
2018-12-20T10:11:52.578Z,35.50
2018-12-20T10:14:27.028Z,35.40
2018-12-20T10:17:01.650Z,35.40
2018-12-20T10:19:36.505Z,35.40
2018-12-20T10:22:12.139Z,35.40
2018-12-20T10:24:46.840Z,35.30
2018-12-20T10:27:22.224Z,35.30
2018-12-20T10:29:56.892Z,35.30
2018-12-20T10:32:31.867Z,35.20
2018-12-20T10:35:06.982Z,35.20
2018-12-20T10:37:43.348Z,35.10
2018-12-20T10:40:17.710Z,35.10
2018-12-20T10:42:52.202Z,35.10
2018-12-20T10:45:28.170Z,35.00
2018-12-20T10:48:02.693Z,34.90
2018-12-20T10:50:38.358Z,34.90
2018-12-20T10:53:13.617Z,34.80
2018-12-20T10:55:48.959Z,34.80
2018-12-20T10:58:24.420Z,34.70
2018-12-20T11:01:03.001Z,34.70
2018-12-20T11:03:42.105Z,34.70
2018-12-20T11:06:21.030Z,34.60
2018-12-20T11:09:34.360Z,34.60
2018-12-20T11:12:11.502Z,34.50
2018-12-20T11:14:46.051Z,34.50
2018-12-20T11:17:22.014Z,34.40
2018-12-20T11:19:57.461Z,34.40
2018-12-20T11:22:33.520Z,34.40
2018-12-20T11:25:08.444Z,34.30
2018-12-20T11:27:57.768Z,34.30
2018-12-20T11:30:35.441Z,34.30
2018-12-20T11:33:12.024Z,34.20
2018-12-20T11:35:47.024Z,34.20
2018-12-20T11:38:23.909Z,34.20
2018-12-20T11:41:00.318Z,34.10
2018-12-20T11:44:06.228Z,34.10
2018-12-20T11:47:12.487Z,34.10
2018-12-20T11:50:10.150Z,34.10
2018-12-20T11:52:45.898Z,34.00
2018-12-20T11:55:21.552Z,34.00
2018-12-20T11:57:57.162Z,34.00
2018-12-20T12:00:37.940Z,33.90
2018-12-20T12:03:14.048Z,33.90
2018-12-20T12:05:49.877Z,33.90
2018-12-20T12:08:24.270Z,33.90
2018-12-20T12:10:59.503Z,33.80
2018-12-20T12:13:35.878Z,33.80
2018-12-20T12:16:10.336Z,33.80
2018-12-20T12:18:45.009Z,33.80
2018-12-20T12:21:19.840Z,33.80
2018-12-20T12:24:11.103Z,33.70
2018-12-20T12:26:45.471Z,33.70
2018-12-20T12:29:21.235Z,33.70
2018-12-20T12:32:19.831Z,33.70
2018-12-20T12:34:54.300Z,33.70
2018-12-20T12:37:30.435Z,33.70
2018-12-20T12:40:05.493Z,33.70
2018-12-20T12:42:41.490Z,33.70
2018-12-20T12:45:17.910Z,33.70
2018-12-20T12:48:25.200Z,33.60
2018-12-20T12:51:00.111Z,33.60
2018-12-20T12:54:00.551Z,33.60
2018-12-20T12:56:36.199Z,33.60
2018-12-20T12:59:10.797Z,33.50
2018-12-20T13:01:45.723Z,33.50
2018-12-20T13:04:51.794Z,33.50
2018-12-20T13:07:58.112Z,33.50
2018-12-20T13:10:34.238Z,33.40
2018-12-20T13:13:09.300Z,33.40
2018-12-20T13:15:43.947Z,33.40
2018-12-20T13:18:18.851Z,33.40
2018-12-20T13:20:53.118Z,33.30
2018-12-20T13:23:28.250Z,33.30
2018-12-20T13:26:03.950Z,33.30
2018-12-20T13:28:37.995Z,33.30
2018-12-20T13:31:13.264Z,33.30
2018-12-20T13:33:48.817Z,33.30
2018-12-20T13:36:22.871Z,33.30
2018-12-20T13:38:57.687Z,33.30
2018-12-20T13:41:34.500Z,33.20
2018-12-20T13:44:09.990Z,33.30
2018-12-20T13:46:44.705Z,33.20
2018-12-20T13:49:19.097Z,33.20
2018-12-20T13:51:52.911Z,33.20
2018-12-20T13:54:52.142Z,33.20
2018-12-20T13:57:26.326Z,33.20
2018-12-20T14:00:00.783Z,33.20
2018-12-20T14:02:35.032Z,33.20
2018-12-20T14:05:10.814Z,33.10
2018-12-20T14:07:46.010Z,33.10
2018-12-20T14:10:20.305Z,33.10
2018-12-20T14:12:54.353Z,33.10
2018-12-20T14:15:28.583Z,33.10
2018-12-20T14:18:03.768Z,33.10
2018-12-20T14:20:38.192Z,33.00
2018-12-20T14:23:16.460Z,33.00
2018-12-20T14:25:50.892Z,33.00
2018-12-20T14:28:24.279Z,33.00
2018-12-20T14:30:59.276Z,32.90
2018-12-20T14:33:34.245Z,32.90
2018-12-20T14:36:10.173Z,32.90
2018-12-20T14:38:45.644Z,32.90
2018-12-20T14:41:21.366Z,32.90
2018-12-20T14:43:55.544Z,32.90
2018-12-20T14:46:30.252Z,32.90
2018-12-20T14:49:04.266Z,32.90
2018-12-20T14:51:39.314Z,32.80
2018-12-20T14:54:21.580Z,32.80
2018-12-20T14:56:59.734Z,32.80
2018-12-20T14:59:33.916Z,32.80
2018-12-20T15:02:08.059Z,32.80
2018-12-20T15:04:42.276Z,32.70
2018-12-20T15:07:16.739Z,32.70
2018-12-20T15:10:07.583Z,32.70
2018-12-20T15:12:41.499Z,32.70
2018-12-20T15:15:15.874Z,32.70
2018-12-20T15:17:51.002Z,32.60
2018-12-20T15:20:24.919Z,32.60
2018-12-20T15:22:59.971Z,32.60
2018-12-20T15:25:34.186Z,32.60
2018-12-20T15:28:09.789Z,32.60
2018-12-20T15:30:44.068Z,32.60
2018-12-20T15:33:29.118Z,32.60
2018-12-20T15:36:03.133Z,32.50
2018-12-20T15:38:36.764Z,32.50
2018-12-20T15:41:10.763Z,32.50
2018-12-20T15:43:44.605Z,32.50
2018-12-20T15:46:19.206Z,32.40
2018-12-20T15:48:56.422Z,32.50
2018-12-20T15:51:31.185Z,32.40
2018-12-20T15:54:05.098Z,32.40
2018-12-20T15:56:39.604Z,32.40
2018-12-20T15:59:13.913Z,32.40
2018-12-20T16:01:47.996Z,32.40
2018-12-20T16:04:22.463Z,32.40
2018-12-20T16:06:56.372Z,32.40
2018-12-20T16:09:34.756Z,32.40
2018-12-20T16:12:08.569Z,32.30
2018-12-20T16:14:43.238Z,32.40
2018-12-20T16:17:16.979Z,32.30
2018-12-20T16:19:51.251Z,32.30
2018-12-20T16:22:25.346Z,32.30
2018-12-20T16:25:00.047Z,32.30
2018-12-20T16:27:34.149Z,32.30
2018-12-20T16:30:08.346Z,32.20
2018-12-20T16:32:42.171Z,32.20
2018-12-20T16:35:17.083Z,32.20
2018-12-20T16:37:59.026Z,32.20
2018-12-20T16:40:32.669Z,32.20
2018-12-20T16:43:06.218Z,32.10
2018-12-20T16:45:41.108Z,32.10
2018-12-20T16:48:18.546Z,32.10
2018-12-20T16:50:52.715Z,32.10
2018-12-20T16:53:26.802Z,32.00
2018-12-20T16:56:02.125Z,32.00
2018-12-20T16:58:37.293Z,32.00
2018-12-20T17:01:11.344Z,32.00
2018-12-20T17:03:45.191Z,31.90
2018-12-20T17:06:19.073Z,31.90
2018-12-20T17:08:52.940Z,31.90
2018-12-20T17:11:27.038Z,31.80
2018-12-20T17:14:01.093Z,31.80
2018-12-20T17:16:34.971Z,31.80
2018-12-20T17:19:08.797Z,31.80
2018-12-20T17:21:43.404Z,31.80
2018-12-20T17:24:17.272Z,31.70
2018-12-20T17:26:52.588Z,31.70
2018-12-20T17:29:26.901Z,31.60
2018-12-20T17:32:00.644Z,31.70
2018-12-20T17:34:35.794Z,31.70
2018-12-20T17:37:42.142Z,31.60
2018-12-20T17:40:17.169Z,31.60
2018-12-20T17:42:51.016Z,31.60
2018-12-20T17:45:25.216Z,31.60
2018-12-20T17:48:00.287Z,31.50
2018-12-20T17:50:35.932Z,31.50
2018-12-20T17:53:10.116Z,31.50
2018-12-20T17:55:44.892Z,31.50
2018-12-20T17:58:19.093Z,31.50
2018-12-20T18:00:53.497Z,31.40
2018-12-20T18:03:28.168Z,31.40
2018-12-20T18:06:02.008Z,31.40
2018-12-20T18:08:36.028Z,31.40
2018-12-20T18:11:10.338Z,31.30
2018-12-20T18:13:46.776Z,31.40
2018-12-20T18:16:21.118Z,31.30
2018-12-20T18:18:55.061Z,31.30
2018-12-20T18:21:35.489Z,31.30
2018-12-20T18:24:11.242Z,31.30
2018-12-20T18:26:45.320Z,31.30
2018-12-20T18:29:19.196Z,31.30
2018-12-20T18:31:56.581Z,31.30
2018-12-20T18:34:31.471Z,31.20
2018-12-20T18:37:05.817Z,31.30
2018-12-20T18:39:39.989Z,31.30
2018-12-20T18:42:14.645Z,31.20
2018-12-20T18:44:51.065Z,31.20
2018-12-20T18:47:26.475Z,31.20
2018-12-20T18:50:00.116Z,31.20
2018-12-20T18:52:35.081Z,31.20
2018-12-20T18:55:08.806Z,31.20
2018-12-20T18:57:42.709Z,31.20
2018-12-20T19:00:16.584Z,31.10
2018-12-20T19:02:51.027Z,31.10
2018-12-20T19:05:25.664Z,31.10
2018-12-20T19:07:59.845Z,31.10
2018-12-20T19:10:33.451Z,31.10
2018-12-20T19:13:07.780Z,31.00
2018-12-20T19:15:41.562Z,31.00
2018-12-20T19:18:15.518Z,31.00
2018-12-20T19:20:52.086Z,31.00
2018-12-20T19:23:26.291Z,31.00
2018-12-20T19:26:00.736Z,31.00
2018-12-20T19:28:34.931Z,31.00
2018-12-20T19:31:08.784Z,31.00
2018-12-20T19:33:42.883Z,30.90
2018-12-20T19:36:18.346Z,30.90
2018-12-20T19:39:05.616Z,30.90
2018-12-20T19:41:39.419Z,30.90
2018-12-20T19:44:13.438Z,30.90
2018-12-20T19:46:48.983Z,30.90
2018-12-20T19:49:24.684Z,30.90
2018-12-20T19:51:58.911Z,30.80
2018-12-20T19:54:34.899Z,30.80
2018-12-20T19:57:40.929Z,30.80
2018-12-20T20:00:17.865Z,30.80
2018-12-20T20:02:52.243Z,30.80
2018-12-20T20:05:27.306Z,30.80
2018-12-20T20:08:01.231Z,30.70
2018-12-20T20:10:36.534Z,30.70
2018-12-20T20:13:42.384Z,30.70
2018-12-20T20:16:16.562Z,30.70
2018-12-20T20:19:21.075Z,30.70
2018-12-20T20:21:58.449Z,30.70
2018-12-20T20:24:35.195Z,30.60
2018-12-20T20:27:12.890Z,30.70
2018-12-20T20:29:47.439Z,30.60
2018-12-20T20:32:22.052Z,30.60
2018-12-20T20:34:58.819Z,30.60
2018-12-20T20:37:32.740Z,30.60
2018-12-20T20:40:08.023Z,30.60
2018-12-20T20:42:41.946Z,30.60
2018-12-20T20:45:16.424Z,30.50
2018-12-20T20:47:50.680Z,30.50
2018-12-20T20:50:25.026Z,30.50
2018-12-20T20:52:58.807Z,30.50
2018-12-20T20:55:33.157Z,30.50
2018-12-20T20:58:08.664Z,30.40
2018-12-20T21:00:43.244Z,30.40
2018-12-20T21:03:17.508Z,30.40
2018-12-20T21:05:51.589Z,30.40
2018-12-20T21:08:26.147Z,30.30
2018-12-20T21:11:00.179Z,30.30
2018-12-20T21:13:35.147Z,30.30
2018-12-20T21:16:09.459Z,30.30
2018-12-20T21:18:43.362Z,30.30
2018-12-20T21:21:18.167Z,30.20
2018-12-20T21:23:53.357Z,30.30
2018-12-20T21:26:27.534Z,30.30
2018-12-20T21:29:02.113Z,30.20
2018-12-20T21:31:35.871Z,30.20
2018-12-20T21:34:10.070Z,30.20
2018-12-20T21:36:44.495Z,30.20
2018-12-20T21:39:19.645Z,30.20
2018-12-20T21:41:53.917Z,30.20
2018-12-20T21:44:59.418Z,30.10
2018-12-20T21:47:33.723Z,30.20
2018-12-20T21:50:08.899Z,30.10
2018-12-20T21:52:43.481Z,30.10
2018-12-20T21:55:17.580Z,30.10
2018-12-20T21:57:52.689Z,30.10
2018-12-20T22:00:26.979Z,30.10
2018-12-20T22:03:01.504Z,30.10
2018-12-20T22:05:35.520Z,30.10
2018-12-20T22:08:09.843Z,30.10
2018-12-20T22:10:45.110Z,30.10
2018-12-20T22:13:22.040Z,30.10
2018-12-20T22:15:55.999Z,30.00
2018-12-20T22:18:30.178Z,30.00
2018-12-20T22:21:04.637Z,30.10
2018-12-20T22:23:40.809Z,30.00
2018-12-20T22:26:15.792Z,30.00
2018-12-20T22:28:56.942Z,30.00
2018-12-20T22:31:31.982Z,30.00
2018-12-20T22:34:06.061Z,30.00
2018-12-20T22:36:56.244Z,30.00
2018-12-20T22:39:30.351Z,30.00
2018-12-20T22:42:04.552Z,30.00
2018-12-20T22:44:38.746Z,30.00
2018-12-20T22:47:12.841Z,30.00
2018-12-20T22:50:06.714Z,30.00
2018-12-20T22:52:40.513Z,29.90
2018-12-20T22:55:14.702Z,29.90
2018-12-20T22:57:49.872Z,29.90
2018-12-20T23:00:24.349Z,29.90
2018-12-20T23:02:58.538Z,29.90
2018-12-20T23:05:32.840Z,29.90
2018-12-20T23:08:06.713Z,29.90
2018-12-20T23:10:40.933Z,29.90
2018-12-20T23:13:14.727Z,29.80
2018-12-20T23:15:49.226Z,29.80
2018-12-20T23:18:23.561Z,29.80
2018-12-20T23:21:04.908Z,29.80
2018-12-20T23:23:34.366Z,29.80
2018-12-20T23:26:08.350Z,29.80
2018-12-20T23:28:42.734Z,29.80
2018-12-20T23:31:17.191Z,29.80
2018-12-20T23:33:52.240Z,29.80
2018-12-20T23:36:26.160Z,29.80
2018-12-20T23:39:00.287Z,29.80
2018-12-20T23:41:35.226Z,29.80
2018-12-20T23:44:09.174Z,29.80
2018-12-20T23:46:43.536Z,29.70
2018-12-20T23:49:17.659Z,29.80
2018-12-20T23:51:51.742Z,29.70
2018-12-20T23:54:25.949Z,29.70
2018-12-20T23:56:59.936Z,29.70
2018-12-20T23:59:34.393Z,29.70
